sensor_id;sensor_type;location;lat;lon;timestamp;P1;durP1;ratioP1;P2;durP2;ratioP2
61523;SDS011;47393;38.758;-9.164;2023-02-15T00:01:47;42.33;;;10.95;;
61523;SDS011;47393;38.758;-9.164;2023-02-15T00:03:50;52.45;;;11.75;;
61523;SDS011;47393;38.758;-9.164;2023-02-15T00:05:51;74.03;;;12.90;;
61523;SDS011;47393;38.758;-9.164;2023-02-15T00:07:52;52.80;;;11.98;;
61523;SDS011;47393;38.758;-9.164;2023-02-15T00:09:52;48.90;;;10.90;;
61523;SDS011;47393;38.758;-9.164;2023-02-15T00:11:54;41.30;;;11.48;;
61523;SDS011;47393;38.758;-9.164;2023-02-15T00:13:56;36.50;;;10.07;;
61523;SDS011;47393;38.758;-9.164;2023-02-15T00:16:05;74.23;;;13.57;;
61523;SDS011;47393;38.758;-9.164;2023-02-15T00:18:06;60.17;;;13.18;;
61523;SDS011;47393;38.758;-9.164;2023-02-15T00:20:07;49.88;;;12.02;;
61523;SDS011;47393;38.758;-9.164;2023-02-15T00:22:08;44.10;;;11.27;;
61523;SDS011;47393;38.758;-9.164;2023-02-15T00:24:10;66.90;;;13.85;;
61523;SDS011;47393;38.758;-9.164;2023-02-15T00:26:12;39.00;;;12.77;;
61523;SDS011;47393;38.758;-9.164;2023-02-15T00:28:19;41.97;;;10.88;;
61523;SDS011;47393;38.758;-9.164;2023-02-15T00:30:23;48.58;;;12.10;;
61523;SDS011;47393;38.758;-9.164;2023-02-15T00:32:27;43.85;;;10.65;;
61523;SDS011;47393;38.758;-9.164;2023-02-15T00:34:30;60.63;;;12.98;;
61523;SDS011;47393;38.758;-9.164;2023-02-15T00:36:32;61.60;;;13.40;;
61523;SDS011;47393;38.758;-9.164;2023-02-15T00:38:37;70.00;;;14.45;;
61523;SDS011;47393;38.758;-9.164;2023-02-15T00:40:39;59.47;;;14.05;;
61523;SDS011;47393;38.758;-9.164;2023-02-15T00:42:40;62.00;;;14.30;;
61523;SDS011;47393;38.758;-9.164;2023-02-15T00:44:42;46.42;;;12.85;;
61523;SDS011;47393;38.758;-9.164;2023-02-15T00:46:43;41.97;;;12.73;;
61523;SDS011;47393;38.758;-9.164;2023-02-15T00:48:44;47.42;;;13.23;;
61523;SDS011;47393;38.758;-9.164;2023-02-15T00:50:45;47.15;;;12.60;;
61523;SDS011;47393;38.758;-9.164;2023-02-15T00:52:46;56.92;;;14.52;;
61523;SDS011;47393;38.758;-9.164;2023-02-15T00:54:47;53.78;;;14.48;;
61523;SDS011;47393;38.758;-9.164;2023-02-15T00:56:48;57.72;;;14.20;;
61523;SDS011;47393;38.758;-9.164;2023-02-15T00:58:49;62.00;;;14.55;;
61523;SDS011;47393;38.758;-9.164;2023-02-15T01:00:51;57.83;;;13.98;;
61523;SDS011;47393;38.758;-9.164;2023-02-15T01:02:52;66.10;;;13.38;;
61523;SDS011;47393;38.758;-9.164;2023-02-15T01:04:52;54.67;;;13.38;;
61523;SDS011;47393;38.758;-9.164;2023-02-15T01:07:00;53.08;;;14.05;;
61523;SDS011;47393;38.758;-9.164;2023-02-15T01:09:17;54.63;;;12.82;;
61523;SDS011;47393;38.758;-9.164;2023-02-15T01:11:39;59.88;;;13.07;;
61523;SDS011;47393;38.758;-9.164;2023-02-15T01:13:52;55.53;;;13.57;;
61523;SDS011;47393;38.758;-9.164;2023-02-15T01:16:03;56.17;;;13.25;;
61523;SDS011;47393;38.758;-9.164;2023-02-15T01:18:27;54.47;;;13.73;;
61523;SDS011;47393;38.758;-9.164;2023-02-15T01:20:28;54.63;;;13.95;;
61523;SDS011;47393;38.758;-9.164;2023-02-15T01:22:29;52.13;;;14.15;;
61523;SDS011;47393;38.758;-9.164;2023-02-15T01:24:30;51.33;;;14.48;;
61523;SDS011;47393;38.758;-9.164;2023-02-15T01:26:32;46.38;;;12.40;;
61523;SDS011;47393;38.758;-9.164;2023-02-15T01:28:32;56.03;;;14.23;;
61523;SDS011;47393;38.758;-9.164;2023-02-15T01:30:35;50.75;;;14.80;;
61523;SDS011;47393;38.758;-9.164;2023-02-15T01:32:36;55.70;;;15.15;;
61523;SDS011;47393;38.758;-9.164;2023-02-15T01:34:36;58.28;;;15.23;;
61523;SDS011;47393;38.758;-9.164;2023-02-15T01:36:40;60.03;;;14.02;;
61523;SDS011;47393;38.758;-9.164;2023-02-15T01:46:56;60.60;;;14.52;;
61523;SDS011;47393;38.758;-9.164;2023-02-15T01:50:00;58.78;;;14.50;;
61523;SDS011;47393;38.758;-9.164;2023-02-15T01:52:06;65.82;;;14.90;;
61523;SDS011;47393;38.758;-9.164;2023-02-15T01:54:11;59.88;;;14.50;;
61523;SDS011;47393;38.758;-9.164;2023-02-15T01:56:20;63.22;;;13.68;;
61523;SDS011;47393;38.758;-9.164;2023-02-15T01:58:23;61.65;;;14.55;;
61523;SDS011;47393;38.758;-9.164;2023-02-15T02:00:26;57.70;;;15.02;;
61523;SDS011;47393;38.758;-9.164;2023-02-15T02:02:27;54.60;;;13.30;;
61523;SDS011;47393;38.758;-9.164;2023-02-15T02:04:41;58.55;;;13.32;;
61523;SDS011;47393;38.758;-9.164;2023-02-15T02:06:45;50.13;;;12.40;;
61523;SDS011;47393;38.758;-9.164;2023-02-15T02:08:47;52.85;;;13.05;;
61523;SDS011;47393;38.758;-9.164;2023-02-15T02:10:50;58.08;;;13.77;;
61523;SDS011;47393;38.758;-9.164;2023-02-15T02:13:00;64.32;;;12.63;;
61523;SDS011;47393;38.758;-9.164;2023-02-15T02:15:02;56.28;;;12.05;;
61523;SDS011;47393;38.758;-9.164;2023-02-15T02:17:17;67.25;;;13.55;;
61523;SDS011;47393;38.758;-9.164;2023-02-15T02:19:25;50.47;;;14.18;;
61523;SDS011;47393;38.758;-9.164;2023-02-15T02:35:26;61.72;;;15.77;;
61523;SDS011;47393;38.758;-9.164;2023-02-15T02:37:37;63.05;;;15.68;;
61523;SDS011;47393;38.758;-9.164;2023-02-15T02:40:01;46.20;;;13.82;;
61523;SDS011;47393;38.758;-9.164;2023-02-15T02:42:27;53.60;;;14.50;;
61523;SDS011;47393;38.758;-9.164;2023-02-15T02:44:29;55.90;;;14.30;;
61523;SDS011;47393;38.758;-9.164;2023-02-15T02:48:57;71.07;;;13.10;;
61523;SDS011;47393;38.758;-9.164;2023-02-15T02:51:05;68.13;;;14.95;;
61523;SDS011;47393;38.758;-9.164;2023-02-15T02:53:17;51.95;;;12.80;;
61523;SDS011;47393;38.758;-9.164;2023-02-15T03:00:20;58.15;;;12.32;;
61523;SDS011;47393;38.758;-9.164;2023-02-15T03:02:57;56.70;;;12.27;;
61523;SDS011;47393;38.758;-9.164;2023-02-15T03:05:16;49.70;;;11.80;;
61523;SDS011;47393;38.758;-9.164;2023-02-15T03:07:20;52.22;;;11.50;;
61523;SDS011;47393;38.758;-9.164;2023-02-15T03:09:25;58.55;;;14.15;;
61523;SDS011;47393;38.758;-9.164;2023-02-15T03:11:43;68.65;;;13.50;;
61523;SDS011;47393;38.758;-9.164;2023-02-15T03:13:45;53.75;;;12.35;;
61523;SDS011;47393;38.758;-9.164;2023-02-15T03:15:48;50.58;;;10.55;;
61523;SDS011;47393;38.758;-9.164;2023-02-15T03:18:12;48.58;;;9.65;;
61523;SDS011;47393;38.758;-9.164;2023-02-15T03:23:40;53.28;;;11.75;;
61523;SDS011;47393;38.758;-9.164;2023-02-15T03:34:54;37.53;;;9.75;;
61523;SDS011;47393;38.758;-9.164;2023-02-15T03:39:20;41.78;;;10.38;;
61523;SDS011;47393;38.758;-9.164;2023-02-15T03:41:22;49.47;;;9.88;;
61523;SDS011;47393;38.758;-9.164;2023-02-15T03:45:51;48.58;;;9.82;;
61523;SDS011;47393;38.758;-9.164;2023-02-15T03:52:23;54.42;;;11.32;;
61523;SDS011;47393;38.758;-9.164;2023-02-15T03:57:40;55.75;;;9.90;;
61523;SDS011;47393;38.758;-9.164;2023-02-15T04:00:01;35.25;;;8.98;;
61523;SDS011;47393;38.758;-9.164;2023-02-15T04:02:22;38.22;;;9.70;;
61523;SDS011;47393;38.758;-9.164;2023-02-15T04:06:32;45.63;;;11.00;;
61523;SDS011;47393;38.758;-9.164;2023-02-15T04:08:34;59.90;;;12.35;;
61523;SDS011;47393;38.758;-9.164;2023-02-15T04:10:53;45.75;;;12.48;;
61523;SDS011;47393;38.758;-9.164;2023-02-15T04:12:58;39.50;;;10.95;;
61523;SDS011;47393;38.758;-9.164;2023-02-15T04:15:02;59.38;;;13.90;;
61523;SDS011;47393;38.758;-9.164;2023-02-15T04:17:23;41.65;;;11.63;;
61523;SDS011;47393;38.758;-9.164;2023-02-15T04:19:26;43.55;;;12.60;;
61523;SDS011;47393;38.758;-9.164;2023-02-15T04:21:49;61.58;;;12.77;;
61523;SDS011;47393;38.758;-9.164;2023-02-15T04:24:14;56.03;;;13.30;;
61523;SDS011;47393;38.758;-9.164;2023-02-15T04:26:37;30.05;;;11.00;;
61523;SDS011;47393;38.758;-9.164;2023-02-15T04:28:44;40.17;;;12.73;;
61523;SDS011;47393;38.758;-9.164;2023-02-15T04:30:56;43.65;;;12.68;;
61523;SDS011;47393;38.758;-9.164;2023-02-15T04:33:00;41.85;;;12.35;;
61523;SDS011;47393;38.758;-9.164;2023-02-15T04:35:01;52.53;;;13.13;;
61523;SDS011;47393;38.758;-9.164;2023-02-15T04:37:04;39.80;;;12.63;;
61523;SDS011;47393;38.758;-9.164;2023-02-15T04:39:05;38.58;;;11.55;;
61523;SDS011;47393;38.758;-9.164;2023-02-15T04:41:06;44.75;;;11.52;;
61523;SDS011;47393;38.758;-9.164;2023-02-15T04:43:07;40.95;;;11.73;;
61523;SDS011;47393;38.758;-9.164;2023-02-15T04:45:11;48.80;;;12.30;;
61523;SDS011;47393;38.758;-9.164;2023-02-15T04:47:12;42.45;;;11.68;;
61523;SDS011;47393;38.758;-9.164;2023-02-15T04:49:13;43.40;;;10.38;;
61523;SDS011;47393;38.758;-9.164;2023-02-15T04:51:14;44.13;;;12.50;;
61523;SDS011;47393;38.758;-9.164;2023-02-15T04:53:15;54.60;;;12.88;;
61523;SDS011;47393;38.758;-9.164;2023-02-15T04:55:19;36.40;;;11.50;;
61523;SDS011;47393;38.758;-9.164;2023-02-15T04:57:20;29.42;;;9.90;;
61523;SDS011;47393;38.758;-9.164;2023-02-15T04:59:22;42.28;;;10.98;;
61523;SDS011;47393;38.758;-9.164;2023-02-15T05:01:31;46.08;;;10.20;;
61523;SDS011;47393;38.758;-9.164;2023-02-15T05:03:32;48.08;;;11.13;;
61523;SDS011;47393;38.758;-9.164;2023-02-15T05:05:45;40.03;;;9.93;;
61523;SDS011;47393;38.758;-9.164;2023-02-15T05:07:48;40.38;;;10.77;;
61523;SDS011;47393;38.758;-9.164;2023-02-15T05:09:52;36.85;;;10.63;;
61523;SDS011;47393;38.758;-9.164;2023-02-15T05:11:56;40.42;;;11.43;;
61523;SDS011;47393;38.758;-9.164;2023-02-15T05:14:18;39.33;;;11.02;;
61523;SDS011;47393;38.758;-9.164;2023-02-15T05:16:34;31.65;;;10.23;;
61523;SDS011;47393;38.758;-9.164;2023-02-15T05:18:35;36.88;;;10.63;;
61523;SDS011;47393;38.758;-9.164;2023-02-15T05:20:35;24.98;;;8.93;;
61523;SDS011;47393;38.758;-9.164;2023-02-15T05:22:36;32.78;;;8.55;;
61523;SDS011;47393;38.758;-9.164;2023-02-15T05:24:52;41.40;;;10.85;;
61523;SDS011;47393;38.758;-9.164;2023-02-15T05:27:20;37.83;;;10.43;;
61523;SDS011;47393;38.758;-9.164;2023-02-15T05:29:48;33.05;;;9.98;;
61523;SDS011;47393;38.758;-9.164;2023-02-15T05:32:04;42.58;;;9.55;;
61523;SDS011;47393;38.758;-9.164;2023-02-15T05:34:43;38.65;;;9.85;;
61523;SDS011;47393;38.758;-9.164;2023-02-15T05:37:19;45.53;;;10.88;;
61523;SDS011;47393;38.758;-9.164;2023-02-15T05:42:09;35.90;;;10.13;;
61523;SDS011;47393;38.758;-9.164;2023-02-15T05:44:15;36.97;;;9.90;;
61523;SDS011;47393;38.758;-9.164;2023-02-15T05:46:29;35.33;;;10.17;;
61523;SDS011;47393;38.758;-9.164;2023-02-15T05:48:57;30.60;;;9.25;;
61523;SDS011;47393;38.758;-9.164;2023-02-15T05:51:49;42.50;;;8.73;;
61523;SDS011;47393;38.758;-9.164;2023-02-15T05:56:38;30.70;;;9.35;;
61523;SDS011;47393;38.758;-9.164;2023-02-15T05:58:44;19.48;;;7.72;;
61523;SDS011;47393;38.758;-9.164;2023-02-15T06:03:42;39.85;;;9.70;;
61523;SDS011;47393;38.758;-9.164;2023-02-15T06:06:07;38.53;;;8.50;;
61523;SDS011;47393;38.758;-9.164;2023-02-15T06:08:17;27.85;;;10.07;;
61523;SDS011;47393;38.758;-9.164;2023-02-15T06:10:43;28.77;;;9.27;;
61523;SDS011;47393;38.758;-9.164;2023-02-15T06:12:44;32.08;;;10.07;;
61523;SDS011;47393;38.758;-9.164;2023-02-15T06:14:52;40.30;;;10.07;;
61523;SDS011;47393;38.758;-9.164;2023-02-15T06:16:57;33.50;;;12.48;;
61523;SDS011;47393;38.758;-9.164;2023-02-15T06:18:59;44.70;;;11.63;;
61523;SDS011;47393;38.758;-9.164;2023-02-15T06:21:01;30.13;;;10.30;;
61523;SDS011;47393;38.758;-9.164;2023-02-15T06:23:05;43.03;;;9.50;;
61523;SDS011;47393;38.758;-9.164;2023-02-15T06:25:11;28.95;;;8.38;;
61523;SDS011;47393;38.758;-9.164;2023-02-15T06:27:21;41.17;;;10.18;;
61523;SDS011;47393;38.758;-9.164;2023-02-15T06:29:22;35.10;;;9.18;;
61523;SDS011;47393;38.758;-9.164;2023-02-15T06:31:23;39.47;;;9.35;;
61523;SDS011;47393;38.758;-9.164;2023-02-15T06:36:30;31.65;;;8.70;;
61523;SDS011;47393;38.758;-9.164;2023-02-15T06:38:42;21.13;;;6.82;;
61523;SDS011;47393;38.758;-9.164;2023-02-15T06:40:47;35.72;;;8.10;;
61523;SDS011;47393;38.758;-9.164;2023-02-15T06:43:00;30.75;;;7.50;;
61523;SDS011;47393;38.758;-9.164;2023-02-15T06:45:11;30.52;;;9.25;;
61523;SDS011;47393;38.758;-9.164;2023-02-15T06:47:13;27.00;;;8.65;;
61523;SDS011;47393;38.758;-9.164;2023-02-15T06:49:17;46.78;;;8.98;;
61523;SDS011;47393;38.758;-9.164;2023-02-15T06:51:24;32.88;;;7.43;;
61523;SDS011;47393;38.758;-9.164;2023-02-15T06:53:42;17.85;;;7.05;;
61523;SDS011;47393;38.758;-9.164;2023-02-15T06:55:52;32.47;;;10.07;;
61523;SDS011;47393;38.758;-9.164;2023-02-15T06:58:00;30.80;;;7.95;;
61523;SDS011;47393;38.758;-9.164;2023-02-15T07:00:13;30.35;;;7.93;;
61523;SDS011;47393;38.758;-9.164;2023-02-15T07:02:22;43.00;;;7.10;;
61523;SDS011;47393;38.758;-9.164;2023-02-15T07:04:33;38.45;;;8.15;;
61523;SDS011;47393;38.758;-9.164;2023-02-15T07:06:43;38.25;;;8.63;;
61523;SDS011;47393;38.758;-9.164;2023-02-15T07:08:54;26.10;;;7.78;;
61523;SDS011;47393;38.758;-9.164;2023-02-15T07:10:55;35.30;;;8.82;;
61523;SDS011;47393;38.758;-9.164;2023-02-15T07:13:35;33.08;;;8.13;;
61523;SDS011;47393;38.758;-9.164;2023-02-15T07:15:52;45.75;;;9.70;;
61523;SDS011;47393;38.758;-9.164;2023-02-15T07:18:02;34.10;;;8.00;;
61523;SDS011;47393;38.758;-9.164;2023-02-15T07:20:38;38.35;;;8.63;;
61523;SDS011;47393;38.758;-9.164;2023-02-15T07:22:44;25.52;;;8.15;;
61523;SDS011;47393;38.758;-9.164;2023-02-15T07:24:48;18.65;;;6.60;;
61523;SDS011;47393;38.758;-9.164;2023-02-15T07:26:51;24.50;;;6.75;;
61523;SDS011;47393;38.758;-9.164;2023-02-15T07:28:53;35.70;;;8.10;;
61523;SDS011;47393;38.758;-9.164;2023-02-15T07:30:54;24.75;;;7.10;;
61523;SDS011;47393;38.758;-9.164;2023-02-15T07:32:57;37.70;;;7.85;;
61523;SDS011;47393;38.758;-9.164;2023-02-15T07:35:17;20.05;;;7.43;;
61523;SDS011;47393;38.758;-9.164;2023-02-15T07:37:19;30.02;;;7.40;;
61523;SDS011;47393;38.758;-9.164;2023-02-15T07:39:27;32.40;;;7.05;;
61523;SDS011;47393;38.758;-9.164;2023-02-15T07:41:46;20.35;;;6.22;;
61523;SDS011;47393;38.758;-9.164;2023-02-15T07:44:01;24.98;;;6.95;;
61523;SDS011;47393;38.758;-9.164;2023-02-15T07:46:12;20.33;;;6.82;;
61523;SDS011;47393;38.758;-9.164;2023-02-15T07:48:21;25.95;;;5.95;;
61523;SDS011;47393;38.758;-9.164;2023-02-15T07:50:32;26.70;;;4.55;;
61523;SDS011;47393;38.758;-9.164;2023-02-15T07:52:33;42.20;;;7.95;;
61523;SDS011;47393;38.758;-9.164;2023-02-15T07:54:43;30.00;;;7.03;;
61523;SDS011;47393;38.758;-9.164;2023-02-15T07:56:48;23.63;;;6.88;;
61523;SDS011;47393;38.758;-9.164;2023-02-15T07:58:54;17.98;;;6.55;;
61523;SDS011;47393;38.758;-9.164;2023-02-15T08:01:04;22.55;;;6.88;;
61523;SDS011;47393;38.758;-9.164;2023-02-15T08:03:06;25.50;;;7.18;;
61523;SDS011;47393;38.758;-9.164;2023-02-15T08:05:20;8.82;;;5.70;;
61523;SDS011;47393;38.758;-9.164;2023-02-15T08:07:28;18.80;;;4.93;;
61523;SDS011;47393;38.758;-9.164;2023-02-15T08:09:37;13.68;;;6.45;;
61523;SDS011;47393;38.758;-9.164;2023-02-15T08:11:47;16.20;;;6.30;;
61523;SDS011;47393;38.758;-9.164;2023-02-15T08:13:52;20.58;;;6.38;;
61523;SDS011;47393;38.758;-9.164;2023-02-15T08:15:56;17.60;;;7.40;;
61523;SDS011;47393;38.758;-9.164;2023-02-15T08:17:57;27.55;;;7.82;;
61523;SDS011;47393;38.758;-9.164;2023-02-15T08:20:00;31.73;;;7.32;;
61523;SDS011;47393;38.758;-9.164;2023-02-15T08:22:11;32.20;;;7.72;;
61523;SDS011;47393;38.758;-9.164;2023-02-15T08:24:28;23.10;;;7.22;;
61523;SDS011;47393;38.758;-9.164;2023-02-15T08:26:33;13.20;;;5.68;;
61523;SDS011;47393;38.758;-9.164;2023-02-15T08:30:55;25.95;;;7.90;;
61523;SDS011;47393;38.758;-9.164;2023-02-15T08:32:59;25.02;;;7.03;;
61523;SDS011;47393;38.758;-9.164;2023-02-15T08:35:03;29.73;;;8.30;;
61523;SDS011;47393;38.758;-9.164;2023-02-15T08:37:06;19.52;;;6.47;;
61523;SDS011;47393;38.758;-9.164;2023-02-15T08:39:09;18.02;;;6.55;;
61523;SDS011;47393;38.758;-9.164;2023-02-15T08:41:18;25.02;;;7.60;;
61523;SDS011;47393;38.758;-9.164;2023-02-15T08:43:24;28.75;;;6.80;;
61523;SDS011;47393;38.758;-9.164;2023-02-15T08:45:39;31.45;;;7.93;;
61523;SDS011;47393;38.758;-9.164;2023-02-15T08:47:42;19.67;;;6.30;;
61523;SDS011;47393;38.758;-9.164;2023-02-15T08:49:44;18.92;;;7.13;;
61523;SDS011;47393;38.758;-9.164;2023-02-15T08:51:51;14.38;;;6.68;;
61523;SDS011;47393;38.758;-9.164;2023-02-15T08:53:53;22.90;;;6.25;;
61523;SDS011;47393;38.758;-9.164;2023-02-15T08:55:59;32.38;;;7.47;;
61523;SDS011;47393;38.758;-9.164;2023-02-15T08:58:17;20.98;;;6.22;;
61523;SDS011;47393;38.758;-9.164;2023-02-15T09:00:19;23.92;;;7.75;;
61523;SDS011;47393;38.758;-9.164;2023-02-15T09:02:27;25.58;;;6.57;;
61523;SDS011;47393;38.758;-9.164;2023-02-15T09:04:47;19.88;;;7.20;;
61523;SDS011;47393;38.758;-9.164;2023-02-15T09:07:02;35.47;;;6.82;;
61523;SDS011;47393;38.758;-9.164;2023-02-15T09:09:13;22.83;;;7.68;;
61523;SDS011;47393;38.758;-9.164;2023-02-15T09:11:19;36.50;;;7.88;;
61523;SDS011;47393;38.758;-9.164;2023-02-15T09:13:33;20.83;;;6.35;;
61523;SDS011;47393;38.758;-9.164;2023-02-15T09:15:58;18.35;;;7.40;;
61523;SDS011;47393;38.758;-9.164;2023-02-15T09:18:03;25.38;;;11.05;;
61523;SDS011;47393;38.758;-9.164;2023-02-15T09:20:36;15.13;;;6.68;;
61523;SDS011;47393;38.758;-9.164;2023-02-15T09:22:51;11.82;;;6.05;;
61523;SDS011;47393;38.758;-9.164;2023-02-15T09:24:57;17.58;;;5.70;;
61523;SDS011;47393;38.758;-9.164;2023-02-15T09:27:03;11.05;;;5.18;;
61523;SDS011;47393;38.758;-9.164;2023-02-15T09:29:11;16.45;;;5.88;;
61523;SDS011;47393;38.758;-9.164;2023-02-15T09:31:45;10.98;;;5.72;;
61523;SDS011;47393;38.758;-9.164;2023-02-15T09:34:09;17.88;;;5.60;;
61523;SDS011;47393;38.758;-9.164;2023-02-15T09:36:21;23.30;;;6.07;;
61523;SDS011;47393;38.758;-9.164;2023-02-15T09:39:13;16.38;;;5.47;;
61523;SDS011;47393;38.758;-9.164;2023-02-15T09:41:49;17.73;;;6.68;;
61523;SDS011;47393;38.758;-9.164;2023-02-15T09:46:39;24.70;;;6.50;;
61523;SDS011;47393;38.758;-9.164;2023-02-15T09:49:02;11.23;;;4.95;;
61523;SDS011;47393;38.758;-9.164;2023-02-15T09:53:50;15.25;;;5.45;;
61523;SDS011;47393;38.758;-9.164;2023-02-15T09:56:00;17.92;;;5.72;;
61523;SDS011;47393;38.758;-9.164;2023-02-15T10:00:30;23.33;;;5.70;;
61523;SDS011;47393;38.758;-9.164;2023-02-15T10:05:43;36.90;;;6.10;;
61523;SDS011;47393;38.758;-9.164;2023-02-15T10:08:10;10.90;;;4.75;;
61523;SDS011;47393;38.758;-9.164;2023-02-15T10:10:44;17.17;;;5.22;;
61523;SDS011;47393;38.758;-9.164;2023-02-15T10:13:36;17.92;;;4.78;;
61523;SDS011;47393;38.758;-9.164;2023-02-15T10:16:00;16.05;;;5.45;;
61523;SDS011;47393;38.758;-9.164;2023-02-15T10:27:49;26.95;;;6.40;;
61523;SDS011;47393;38.758;-9.164;2023-02-15T10:30:12;42.30;;;6.60;;
61523;SDS011;47393;38.758;-9.164;2023-02-15T10:32:34;16.60;;;4.88;;
61523;SDS011;47393;38.758;-9.164;2023-02-15T10:35:10;38.38;;;7.90;;
61523;SDS011;47393;38.758;-9.164;2023-02-15T10:50:06;13.50;;;5.18;;
61523;SDS011;47393;38.758;-9.164;2023-02-15T10:54:44;18.25;;;5.43;;
61523;SDS011;47393;38.758;-9.164;2023-02-15T10:57:06;22.65;;;5.32;;
61523;SDS011;47393;38.758;-9.164;2023-02-15T11:06:32;20.05;;;5.97;;
61523;SDS011;47393;38.758;-9.164;2023-02-15T11:09:09;19.83;;;5.03;;
61523;SDS011;47393;38.758;-9.164;2023-02-15T11:11:30;23.33;;;5.55;;
61523;SDS011;47393;38.758;-9.164;2023-02-15T11:13:51;16.67;;;4.85;;
61523;SDS011;47393;38.758;-9.164;2023-02-15T11:19:15;12.10;;;4.60;;
61523;SDS011;47393;38.758;-9.164;2023-02-15T11:21:33;15.15;;;4.88;;
61523;SDS011;47393;38.758;-9.164;2023-02-15T11:23:59;23.42;;;5.85;;
61523;SDS011;47393;38.758;-9.164;2023-02-15T11:26:34;7.82;;;4.82;;
61523;SDS011;47393;38.758;-9.164;2023-02-15T11:29:22;23.50;;;5.30;;
61523;SDS011;47393;38.758;-9.164;2023-02-15T11:36:24;22.00;;;5.70;;
61523;SDS011;47393;38.758;-9.164;2023-02-15T11:43:53;12.68;;;5.20;;
61523;SDS011;47393;38.758;-9.164;2023-02-15T11:46:08;18.52;;;5.07;;
61523;SDS011;47393;38.758;-9.164;2023-02-15T11:48:29;21.52;;;5.88;;
61523;SDS011;47393;38.758;-9.164;2023-02-15T11:50:35;25.48;;;6.07;;
61523;SDS011;47393;38.758;-9.164;2023-02-15T11:53:03;23.35;;;5.68;;
61523;SDS011;47393;38.758;-9.164;2023-02-15T11:55:29;27.08;;;6.63;;
61523;SDS011;47393;38.758;-9.164;2023-02-15T11:57:53;18.55;;;5.05;;
61523;SDS011;47393;38.758;-9.164;2023-02-15T12:00:12;25.60;;;6.82;;
61523;SDS011;47393;38.758;-9.164;2023-02-15T12:02:33;24.40;;;6.57;;
61523;SDS011;47393;38.758;-9.164;2023-02-15T12:04:44;22.38;;;5.75;;
61523;SDS011;47393;38.758;-9.164;2023-02-15T12:06:56;23.20;;;5.78;;
61523;SDS011;47393;38.758;-9.164;2023-02-15T12:12:30;22.65;;;6.07;;
61523;SDS011;47393;38.758;-9.164;2023-02-15T12:14:46;26.20;;;5.45;;
61523;SDS011;47393;38.758;-9.164;2023-02-15T12:17:00;19.52;;;5.50;;
61523;SDS011;47393;38.758;-9.164;2023-02-15T12:24:43;23.13;;;5.68;;
61523;SDS011;47393;38.758;-9.164;2023-02-15T12:26:48;23.88;;;5.65;;
61523;SDS011;47393;38.758;-9.164;2023-02-15T12:29:18;27.23;;;8.90;;
61523;SDS011;47393;38.758;-9.164;2023-02-15T12:31:36;18.30;;;5.35;;
61523;SDS011;47393;38.758;-9.164;2023-02-15T12:33:48;35.53;;;6.78;;
61523;SDS011;47393;38.758;-9.164;2023-02-15T12:36:01;31.73;;;5.10;;
61523;SDS011;47393;38.758;-9.164;2023-02-15T12:40:26;23.23;;;4.85;;
61523;SDS011;47393;38.758;-9.164;2023-02-15T12:42:41;21.02;;;5.30;;
61523;SDS011;47393;38.758;-9.164;2023-02-15T12:44:56;28.20;;;6.00;;
61523;SDS011;47393;38.758;-9.164;2023-02-15T12:49:20;16.90;;;5.20;;
61523;SDS011;47393;38.758;-9.164;2023-02-15T12:51:28;21.90;;;4.97;;
61523;SDS011;47393;38.758;-9.164;2023-02-15T12:53:35;25.95;;;5.10;;
61523;SDS011;47393;38.758;-9.164;2023-02-15T12:55:53;24.92;;;5.15;;
61523;SDS011;47393;38.758;-9.164;2023-02-15T12:58:07;22.60;;;5.40;;
61523;SDS011;47393;38.758;-9.164;2023-02-15T13:03:14;16.50;;;5.45;;
61523;SDS011;47393;38.758;-9.164;2023-02-15T13:07:57;19.80;;;5.53;;
61523;SDS011;47393;38.758;-9.164;2023-02-15T13:10:25;29.48;;;6.10;;
61523;SDS011;47393;38.758;-9.164;2023-02-15T13:12:34;24.88;;;5.40;;
61523;SDS011;47393;38.758;-9.164;2023-02-15T13:14:49;30.50;;;5.47;;
61523;SDS011;47393;38.758;-9.164;2023-02-15T13:17:25;28.38;;;5.40;;
61523;SDS011;47393;38.758;-9.164;2023-02-15T13:21:47;29.95;;;6.20;;
61523;SDS011;47393;38.758;-9.164;2023-02-15T13:24:04;19.42;;;6.47;;
61523;SDS011;47393;38.758;-9.164;2023-02-15T13:26:15;21.50;;;5.85;;
61523;SDS011;47393;38.758;-9.164;2023-02-15T13:28:37;74.55;;;6.35;;
61523;SDS011;47393;38.758;-9.164;2023-02-15T13:30:53;44.67;;;5.22;;
61523;SDS011;47393;38.758;-9.164;2023-02-15T13:33:10;25.13;;;4.25;;
61523;SDS011;47393;38.758;-9.164;2023-02-15T13:35:19;35.42;;;6.15;;
61523;SDS011;47393;38.758;-9.164;2023-02-15T13:37:45;23.20;;;9.85;;
61523;SDS011;47393;38.758;-9.164;2023-02-15T13:40:22;32.17;;;8.07;;
61523;SDS011;47393;38.758;-9.164;2023-02-15T13:42:37;17.33;;;4.75;;
61523;SDS011;47393;38.758;-9.164;2023-02-15T14:18:59;36.92;;;11.30;;
61523;SDS011;47393;38.758;-9.164;2023-02-15T14:25:55;35.35;;;7.35;;
61523;SDS011;47393;38.758;-9.164;2023-02-15T14:30:18;19.45;;;5.18;;
61523;SDS011;47393;38.758;-9.164;2023-02-15T14:32:30;9.63;;;3.92;;
61523;SDS011;47393;38.758;-9.164;2023-02-15T14:36:59;16.77;;;4.15;;
61523;SDS011;47393;38.758;-9.164;2023-02-15T14:39:17;12.52;;;3.50;;
61523;SDS011;47393;38.758;-9.164;2023-02-15T14:41:49;21.50;;;4.20;;
61523;SDS011;47393;38.758;-9.164;2023-02-15T14:49:37;25.65;;;3.70;;
61523;SDS011;47393;38.758;-9.164;2023-02-15T14:51:58;17.13;;;4.55;;
61523;SDS011;47393;38.758;-9.164;2023-02-15T14:56:36;43.75;;;6.00;;
61523;SDS011;47393;38.758;-9.164;2023-02-15T15:08:31;25.08;;;5.03;;
61523;SDS011;47393;38.758;-9.164;2023-02-15T15:10:45;60.83;;;6.07;;
61523;SDS011;47393;38.758;-9.164;2023-02-15T15:16:50;18.98;;;4.05;;
61523;SDS011;47393;38.758;-9.164;2023-02-15T15:21:55;59.33;;;7.10;;
61523;SDS011;47393;38.758;-9.164;2023-02-15T15:24:00;31.80;;;5.50;;
61523;SDS011;47393;38.758;-9.164;2023-02-15T15:53:37;24.92;;;5.05;;
61523;SDS011;47393;38.758;-9.164;2023-02-15T15:55:43;38.90;;;5.68;;
61523;SDS011;47393;38.758;-9.164;2023-02-15T15:58:02;22.85;;;4.25;;
61523;SDS011;47393;38.758;-9.164;2023-02-15T16:02:29;12.27;;;3.55;;
61523;SDS011;47393;38.758;-9.164;2023-02-15T16:09:37;20.30;;;4.05;;
61523;SDS011;47393;38.758;-9.164;2023-02-15T16:12:02;9.35;;;3.25;;
61523;SDS011;47393;38.758;-9.164;2023-02-15T16:14:38;51.95;;;4.53;;
61523;SDS011;47393;38.758;-9.164;2023-02-15T16:16:51;16.50;;;3.63;;
61523;SDS011;47393;38.758;-9.164;2023-02-15T16:19:29;26.08;;;3.67;;
61523;SDS011;47393;38.758;-9.164;2023-02-15T16:22:13;23.90;;;4.53;;
61523;SDS011;47393;38.758;-9.164;2023-02-15T16:28:15;49.40;;;4.60;;
61523;SDS011;47393;38.758;-9.164;2023-02-15T16:34:47;21.65;;;3.40;;
61523;SDS011;47393;38.758;-9.164;2023-02-15T16:46:11;10.90;;;3.67;;
61523;SDS011;47393;38.758;-9.164;2023-02-15T16:48:17;14.50;;;4.05;;
61523;SDS011;47393;38.758;-9.164;2023-02-15T16:50:41;21.42;;;3.10;;
61523;SDS011;47393;38.758;-9.164;2023-02-15T16:52:50;13.15;;;3.42;;
61523;SDS011;47393;38.758;-9.164;2023-02-15T16:54:56;12.50;;;3.72;;
61523;SDS011;47393;38.758;-9.164;2023-02-15T16:57:01;11.40;;;3.53;;
61523;SDS011;47393;38.758;-9.164;2023-02-15T16:59:03;18.05;;;3.53;;
61523;SDS011;47393;38.758;-9.164;2023-02-15T17:01:06;20.05;;;4.10;;
61523;SDS011;47393;38.758;-9.164;2023-02-15T17:05:15;8.57;;;3.10;;
61523;SDS011;47393;38.758;-9.164;2023-02-15T17:07:21;31.15;;;4.65;;
61523;SDS011;47393;38.758;-9.164;2023-02-15T17:09:27;11.15;;;3.45;;
61523;SDS011;47393;38.758;-9.164;2023-02-15T17:11:39;10.63;;;3.63;;
61523;SDS011;47393;38.758;-9.164;2023-02-15T17:16:23;32.67;;;4.55;;